createdAt,value
2018-10-01T00:00:08.972Z,101339.06
2018-10-01T00:02:37.831Z,101341.41
2018-10-01T00:05:07.236Z,101339.80
2018-10-01T00:07:36.430Z,101341.17
2018-10-01T00:10:05.357Z,101338.23
2018-10-01T00:12:34.164Z,101341.48
2018-10-01T00:15:03.120Z,101333.80
2018-10-01T00:17:31.999Z,101335.17
2018-10-01T00:20:06.455Z,101329.41
2018-10-01T00:22:40.731Z,101333.07
2018-10-01T00:25:09.659Z,101330.11
2018-10-01T00:27:38.455Z,101325.32
2018-10-01T00:30:07.429Z,101314.48
2018-10-01T00:32:36.282Z,101318.36
2018-10-01T00:35:05.528Z,101318.59
2018-10-01T00:37:34.477Z,101318.75
2018-10-01T00:40:03.412Z,101325.69
2018-10-01T00:42:32.644Z,101334.53
2018-10-01T00:45:04.678Z,101331.78
2018-10-01T00:47:33.524Z,101337.70
2018-10-01T00:50:02.436Z,101336.42
2018-10-01T00:52:31.249Z,101337.62
2018-10-01T00:55:00.052Z,101336.34
2018-10-01T00:57:28.897Z,101335.23
2018-10-01T00:59:57.760Z,101344.22
2018-10-01T01:02:26.640Z,101337.50
2018-10-01T01:04:55.422Z,101341.77
2018-10-01T01:07:24.236Z,101345.25
2018-10-01T01:09:53.056Z,101338.44
2018-10-01T01:12:21.887Z,101342.86
2018-10-01T01:14:50.728Z,101344.64
2018-10-01T01:17:19.565Z,101347.77
2018-10-01T01:19:48.415Z,101339.22
2018-10-01T01:22:17.238Z,101349.67
2018-10-01T01:24:46.029Z,101342.53
2018-10-01T01:27:14.952Z,101342.52
2018-10-01T01:29:43.768Z,101337.72
2018-10-01T01:32:12.591Z,101341.17
2018-10-01T01:34:41.375Z,101336.75
2018-10-01T01:37:10.452Z,101336.86
2018-10-01T01:39:39.299Z,101330.03
2018-10-01T01:42:08.208Z,101329.79
2018-10-01T01:44:37.092Z,101327.51
2018-10-01T01:47:06.081Z,101332.60
2018-10-01T01:49:34.922Z,101334.45
2018-10-01T01:52:03.833Z,101337.48
2018-10-01T01:54:32.675Z,101333.13
2018-10-01T01:57:01.464Z,101331.22
2018-10-01T01:59:30.365Z,101331.41
2018-10-01T02:01:59.549Z,101330.56
2018-10-01T02:04:28.762Z,101332.84
2018-10-01T02:06:57.597Z,101320.14
2018-10-01T02:09:27.395Z,101321.51
2018-10-01T02:11:56.172Z,101317.26
2018-10-01T02:14:25.053Z,101311.70
2018-10-01T02:16:53.909Z,101312.55
2018-10-01T02:19:22.784Z,101319.65
2018-10-01T02:21:51.652Z,101315.45
2018-10-01T02:24:20.484Z,101323.64
2018-10-01T02:26:49.275Z,101321.44
2018-10-01T02:29:18.247Z,101326.37
2018-10-01T02:31:47.036Z,101328.55
2018-10-01T02:34:15.859Z,101323.52
2018-10-01T02:36:44.685Z,101329.55
2018-10-01T02:39:14.484Z,101333.66
2018-10-01T02:41:43.431Z,101329.95
2018-10-01T02:44:12.616Z,101324.95
2018-10-01T02:46:41.440Z,101330.20
2018-10-01T02:49:10.511Z,101322.22
2018-10-01T02:51:44.880Z,101323.58
2018-10-01T02:54:19.380Z,101327.89
2018-10-01T02:56:48.258Z,101331.28
2018-10-01T02:59:17.137Z,101332.23
2018-10-01T03:01:46.287Z,101331.11
2018-10-01T03:04:15.167Z,101322.57
2018-10-01T03:06:50.111Z,101320.05
2018-10-01T03:09:24.964Z,101317.11
2018-10-01T03:11:59.929Z,101317.78
2018-10-01T03:14:28.766Z,101317.78
2018-10-01T03:16:57.612Z,101318.27
2018-10-01T03:19:26.400Z,101314.98
2018-10-01T03:21:55.237Z,101310.43
2018-10-01T03:24:24.021Z,101312.91
2018-10-01T03:26:52.893Z,101312.67
2018-10-01T03:29:21.684Z,101309.59
2018-10-01T03:31:50.511Z,101309.06
2018-10-01T03:34:19.299Z,101308.72
2018-10-01T03:36:48.134Z,101314.28
2018-10-01T03:39:16.960Z,101317.56
2018-10-01T03:41:45.797Z,101311.91
2018-10-01T03:44:14.579Z,101314.03
2018-10-01T03:46:43.452Z,101315.19
2018-10-01T03:49:12.254Z,101316.76
2018-10-01T03:51:41.378Z,101315.19
2018-10-01T03:54:10.148Z,101314.95
2018-10-01T03:56:38.920Z,101313.27
2018-10-01T03:59:08.640Z,101319.84
2018-10-01T04:01:43.747Z,101313.58
2018-10-01T04:04:18.508Z,101314.94
2018-10-01T04:06:53.420Z,101316.77
2018-10-01T04:09:28.309Z,101314.77
2018-10-01T04:12:03.252Z,101314.63
2018-10-01T04:14:32.141Z,101314.28
2018-10-01T04:17:00.936Z,101312.46
2018-10-01T04:19:35.895Z,101308.81
2018-10-01T04:22:10.625Z,101299.94
2018-10-01T04:24:45.493Z,101305.18
2018-10-01T04:27:20.412Z,101312.49
2018-10-01T04:29:55.263Z,101314.73
2018-10-01T04:32:24.134Z,101323.83
2018-10-01T04:34:59.425Z,101315.68
2018-10-01T04:37:34.253Z,101318.09
2018-10-01T04:40:09.133Z,101317.04
2018-10-01T04:42:43.925Z,101318.08
2018-10-01T04:45:12.864Z,101324.22
2018-10-01T04:47:41.775Z,101320.92
2018-10-01T04:50:10.662Z,101321.16
2018-10-01T04:52:39.545Z,101321.81
2018-10-01T04:55:08.733Z,101324.34
2018-10-01T04:57:37.636Z,101330.70
2018-10-01T05:00:07.582Z,101326.28
2018-10-01T05:02:36.384Z,101329.69
2018-10-01T05:05:06.181Z,101346.48
2018-10-01T05:07:35.129Z,101339.55
2018-10-01T05:10:04.294Z,101340.25
2018-10-01T05:12:33.133Z,101345.02
2018-10-01T05:15:01.984Z,101340.92
2018-10-01T05:17:30.769Z,101341.39
2018-10-01T05:19:59.980Z,101340.36
2018-10-01T05:22:28.864Z,101340.66
2018-10-01T05:24:57.685Z,101337.57
2018-10-01T05:27:26.510Z,101336.89
2018-10-01T05:29:55.304Z,101341.58
2018-10-01T05:32:24.127Z,101339.98
2018-10-01T05:34:52.950Z,101343.62
2018-10-01T05:37:21.812Z,101352.01
2018-10-01T05:39:50.632Z,101345.55
2018-10-01T05:42:19.507Z,101349.73
2018-10-01T05:44:48.324Z,101359.26
2018-10-01T05:47:17.266Z,101363.83
2018-10-01T05:49:46.076Z,101360.86
2018-10-01T05:52:14.935Z,101359.72
2018-10-01T05:54:43.758Z,101357.66
2018-10-01T05:57:12.679Z,101364.20
2018-10-01T05:59:41.854Z,101363.91
2018-10-01T06:02:10.775Z,101364.26
2018-10-01T06:04:39.585Z,101363.02
2018-10-01T06:07:08.387Z,101369.56
2018-10-01T06:09:37.221Z,101374.91
2018-10-01T06:12:06.248Z,101376.69
2018-10-01T06:14:35.064Z,101378.30
2018-10-01T06:17:04.028Z,101383.25
2018-10-01T06:19:32.912Z,101384.52
2018-10-01T06:22:01.754Z,101386.47
2018-10-01T06:24:30.817Z,101392.36
2018-10-01T06:26:59.633Z,101393.00
2018-10-01T06:29:28.508Z,101396.75
2018-10-01T06:31:57.354Z,101403.13
2018-10-01T06:34:26.265Z,101404.36
2018-10-01T06:36:55.128Z,101403.72
2018-10-01T06:39:24.005Z,101408.73
2018-10-01T06:41:52.833Z,101411.12
2018-10-01T06:44:21.723Z,101417.34
2018-10-01T06:46:50.520Z,101409.63
2018-10-01T06:49:19.435Z,101411.03
2018-10-01T06:51:48.228Z,101413.31
2018-10-01T06:54:17.131Z,101413.13
2018-10-01T06:56:45.936Z,101423.48
2018-10-01T06:59:14.848Z,101422.27
2018-10-01T07:01:43.728Z,101427.28
2018-10-01T07:04:12.572Z,101432.78
2018-10-01T07:06:41.381Z,101432.34
2018-10-01T07:09:11.129Z,101436.41
2018-10-01T07:11:40.552Z,101435.98
2018-10-01T07:14:09.399Z,101439.61
2018-10-01T07:16:38.179Z,101438.02
2018-10-01T07:19:07.120Z,101442.78
2018-10-01T07:21:35.933Z,101444.16
2018-10-01T07:24:04.817Z,101446.64
2018-10-01T07:26:33.808Z,101450.86
2018-10-01T07:29:02.905Z,101456.44
2018-10-01T07:31:31.873Z,101457.92
2018-10-01T07:34:00.665Z,101455.98
2018-10-01T07:36:29.696Z,101458.59
2018-10-01T07:38:58.858Z,101457.13
2018-10-01T07:41:27.882Z,101462.43
2018-10-01T07:43:56.691Z,101462.84
2018-10-01T07:46:26.963Z,101464.31
2018-10-01T07:48:57.341Z,101462.14
2018-10-01T07:51:28.442Z,101469.42
2018-10-01T07:53:59.093Z,101471.08
2018-10-01T07:56:29.278Z,101468.56
2018-10-01T07:58:59.562Z,101467.74
2018-10-01T08:01:30.403Z,101462.60
2018-10-01T08:04:00.768Z,101469.34
2018-10-01T08:06:30.999Z,101469.06
2018-10-01T08:09:01.524Z,101469.84
2018-10-01T08:11:32.108Z,101470.33
2018-10-01T08:14:02.590Z,101473.13
2018-10-01T08:16:33.323Z,101473.07
2018-10-01T08:19:04.052Z,101468.38
2018-10-01T08:21:34.190Z,101468.19
2018-10-01T08:24:04.333Z,101471.06
2018-10-01T08:26:34.868Z,101466.05
2018-10-01T08:29:04.737Z,101468.95
2018-10-01T08:31:34.351Z,101473.47
2018-10-01T08:34:04.716Z,101478.25
2018-10-01T08:36:35.095Z,101481.03
2018-10-01T08:39:09.858Z,101483.20
2018-10-01T08:41:41.079Z,101490.42
2018-10-01T08:44:13.138Z,101493.28
2018-10-01T08:46:43.981Z,101491.67
2018-10-01T08:49:27.722Z,101495.66
2018-10-01T08:52:02.950Z,101502.92
2018-10-01T08:54:35.942Z,101501.05
2018-10-01T08:57:06.394Z,101500.79
2018-10-01T08:59:36.271Z,101506.98
2018-10-01T09:02:07.362Z,101502.80
2018-10-01T09:04:38.242Z,101514.05
2018-10-01T09:07:08.331Z,101508.84
2018-10-01T09:09:38.715Z,101515.64
2018-10-01T09:12:09.480Z,101514.46
2018-10-01T09:14:40.127Z,101514.20
2018-10-01T09:17:10.915Z,101513.58
2018-10-01T09:19:41.817Z,101520.38
2018-10-01T09:22:12.837Z,101520.16
2018-10-01T09:24:43.178Z,101524.80
2018-10-01T09:27:13.330Z,101515.65
2018-10-01T09:29:43.888Z,101526.02
2018-10-01T09:32:13.950Z,101526.08
2018-10-01T09:34:44.498Z,101535.81
2018-10-01T09:37:14.713Z,101539.42
2018-10-01T09:39:45.078Z,101538.93
2018-10-01T09:42:15.815Z,101547.23
2018-10-01T09:44:46.110Z,101554.58
2018-10-01T09:47:17.222Z,101552.97
2018-10-01T09:49:47.228Z,101553.44
2018-10-01T09:52:17.801Z,101552.17
2018-10-01T09:54:48.081Z,101543.50
2018-10-01T09:57:19.241Z,101549.34
2018-10-01T09:59:49.795Z,101550.95
2018-10-01T10:02:20.704Z,101551.16
2018-10-01T10:04:51.713Z,101548.05
2018-10-01T10:07:22.253Z,101550.84
2018-10-01T10:09:52.998Z,101549.75
2018-10-01T10:12:24.106Z,101550.73
2018-10-01T10:14:54.495Z,101553.73
2018-10-01T10:17:24.783Z,101550.91
2018-10-01T10:19:54.679Z,101547.56
2018-10-01T10:22:26.081Z,101556.86
2018-10-01T10:24:56.632Z,101564.25
2018-10-01T10:27:26.578Z,101570.76
2018-10-01T10:29:56.425Z,101572.36
2018-10-01T10:32:27.173Z,101580.28
2018-10-01T10:34:58.089Z,101575.22
2018-10-01T10:37:28.612Z,101590.91
2018-10-01T10:39:59.114Z,101595.60
2018-10-01T10:42:29.999Z,101603.53
2018-10-01T10:45:06.702Z,101605.17
2018-10-01T10:47:37.326Z,101606.64
2018-10-01T10:50:09.012Z,101607.55
2018-10-01T10:52:38.942Z,101608.12
2018-10-01T10:55:09.340Z,101616.21
2018-10-01T10:57:39.876Z,101622.92
2018-10-01T11:00:10.740Z,101614.86
2018-10-01T11:02:41.280Z,101615.66
2018-10-01T11:05:11.629Z,101606.95
2018-10-01T11:07:42.044Z,101607.55
2018-10-01T11:10:12.421Z,101602.97
2018-10-01T11:12:42.434Z,101609.59
2018-10-01T11:15:13.330Z,101599.14
2018-10-01T11:17:43.881Z,101605.38
2018-10-01T11:20:14.715Z,101609.59
2018-10-01T11:22:45.146Z,101613.47
2018-10-01T11:25:16.247Z,101619.16
2018-10-01T11:27:46.495Z,101625.27
2018-10-01T11:30:17.347Z,101628.23
2018-10-01T11:32:47.718Z,101627.47
2018-10-01T11:35:18.327Z,101632.84
2018-10-01T11:37:48.646Z,101643.42
2018-10-01T11:40:18.684Z,101638.73
2018-10-01T11:42:48.882Z,101640.09
2018-10-01T11:45:18.088Z,101640.09
2018-10-01T11:47:46.775Z,101631.92
2018-10-01T11:50:15.637Z,101631.47
2018-10-01T11:52:44.743Z,101622.47
2018-10-01T11:55:13.577Z,101631.88
2018-10-01T11:57:42.572Z,101638.73
2018-10-01T12:00:11.712Z,101632.55
2018-10-01T12:02:40.612Z,101645.22
2018-10-01T12:05:09.408Z,101639.53
2018-10-01T12:07:38.254Z,101640.09
2018-10-01T12:10:07.231Z,101648.52
2018-10-01T12:12:36.080Z,101645.23
2018-10-01T12:15:05.017Z,101651.16
2018-10-01T12:17:33.944Z,101659.46
2018-10-01T12:20:02.824Z,101656.51
2018-10-01T12:22:31.692Z,101665.56
2018-10-01T12:25:00.457Z,101670.08
2018-10-01T12:27:29.681Z,101660.73
2018-10-01T12:29:58.432Z,101650.20
2018-10-01T12:32:27.265Z,101637.36
2018-10-01T12:34:56.253Z,101647.27
2018-10-01T12:37:25.276Z,101647.69
2018-10-01T12:39:54.123Z,101646.13
2018-10-01T12:42:23.033Z,101645.78
2018-10-01T12:44:51.845Z,101661.94
2018-10-01T12:47:20.789Z,101681.05
2018-10-01T12:49:49.591Z,101706.66
2018-10-01T12:52:18.387Z,101698.63
2018-10-01T12:54:47.238Z,101674.23
2018-10-01T12:57:16.111Z,101650.39
2018-10-01T12:59:44.987Z,101673.20
2018-10-01T13:02:13.809Z,101683.91
2018-10-01T13:04:42.945Z,101683.17
2018-10-01T13:07:11.712Z,101668.03
2018-10-01T13:09:40.570Z,101661.23
2018-10-01T13:12:09.432Z,101669.17
2018-10-01T13:14:38.408Z,101667.97
2018-10-01T13:17:07.304Z,101665.63
2018-10-01T13:19:36.147Z,101661.33
2018-10-01T13:22:05.028Z,101669.98
2018-10-01T13:24:34.060Z,101665.52
2018-10-01T13:27:02.808Z,101657.81
2018-10-01T13:29:31.659Z,101655.56
2018-10-01T13:32:01.178Z,101665.32
2018-10-01T13:34:29.889Z,101664.44
2018-10-01T13:36:58.753Z,101656.70
2018-10-01T13:39:27.606Z,101666.38
2018-10-01T13:41:56.452Z,101667.78
2018-10-01T13:44:25.369Z,101669.80
2018-10-01T13:46:54.218Z,101673.05
2018-10-01T13:49:23.118Z,101672.11
2018-10-01T13:51:52.216Z,101666.77
2018-10-01T13:54:21.156Z,101674.28
2018-10-01T13:56:50.316Z,101681.95
2018-10-01T13:59:19.120Z,101671.14
2018-10-01T14:01:48.104Z,101696.07
2018-10-01T14:04:17.135Z,101686.55
2018-10-01T14:06:45.990Z,101692.58
2018-10-01T14:09:14.823Z,101680.97
2018-10-01T14:11:43.960Z,101677.44
2018-10-01T14:14:12.811Z,101666.40
2018-10-01T14:16:41.664Z,101672.06
2018-10-01T14:19:10.479Z,101664.09
2018-10-01T14:21:39.624Z,101657.41
2018-10-01T14:24:08.517Z,101660.09
2018-10-01T14:26:37.458Z,101661.02
2018-10-01T14:29:06.327Z,101665.97
2018-10-01T14:31:35.180Z,101664.02
2018-10-01T14:34:04.009Z,101667.68
2018-10-01T14:36:33.186Z,101669.67
2018-10-01T14:39:02.072Z,101677.77
2018-10-01T14:41:30.899Z,101670.13
2018-10-01T14:43:59.821Z,101681.14
2018-10-01T14:46:28.756Z,101678.55
2018-10-01T14:48:57.587Z,101682.89
2018-10-01T14:51:26.710Z,101688.12
2018-10-01T14:53:55.583Z,101675.62
2018-10-01T14:56:24.430Z,101686.98
2018-10-01T14:58:53.288Z,101686.16
2018-10-01T15:01:22.172Z,101689.87
2018-10-01T15:03:51.359Z,101693.98
2018-10-01T15:06:20.179Z,101691.52
2018-10-01T15:08:49.057Z,101695.56
2018-10-01T15:11:17.898Z,101706.89
2018-10-01T15:13:46.739Z,101711.67
2018-10-01T15:16:15.656Z,101715.23
2018-10-01T15:18:44.483Z,101708.67
2018-10-01T15:21:14.081Z,101710.41
2018-10-01T15:23:42.906Z,101727.50
2018-10-01T15:26:11.715Z,101721.36
2018-10-01T15:28:40.597Z,101728.22
2018-10-01T15:31:09.429Z,101727.44
2018-10-01T15:33:38.280Z,101734.02
2018-10-01T15:36:07.216Z,101729.17
2018-10-01T15:38:36.022Z,101727.23
2018-10-01T15:45:29.936Z,101726.54
2018-10-01T15:47:58.719Z,101725.30
2018-10-01T15:50:27.589Z,101728.02
2018-10-01T15:52:56.578Z,101730.45
2018-10-01T15:55:25.440Z,101739.94
2018-10-01T15:57:54.260Z,101743.64
2018-10-01T16:00:23.163Z,101739.05
2018-10-01T16:02:52.025Z,101758.16
2018-10-01T16:05:20.942Z,101757.18
2018-10-01T16:07:49.755Z,101765.89
2018-10-01T16:10:18.887Z,101769.67
2018-10-01T16:12:47.678Z,101772.44
2018-10-01T16:15:16.542Z,101773.91
2018-10-01T16:17:45.446Z,101787.40
2018-10-01T16:20:14.302Z,101790.86
2018-10-01T16:22:43.104Z,101788.75
2018-10-01T16:25:11.933Z,101793.69
2018-10-01T16:27:40.716Z,101789.41
2018-10-01T16:30:10.205Z,101794.95
2018-10-01T16:32:39.495Z,101797.11
2018-10-01T16:35:08.296Z,101795.34
2018-10-01T16:37:37.152Z,101797.98
2018-10-01T16:40:06.104Z,101793.91
2018-10-01T16:42:35.033Z,101804.48
2018-10-01T16:45:09.832Z,101800.17
2018-10-01T16:47:38.687Z,101801.30
2018-10-01T16:50:07.589Z,101804.24
2018-10-01T16:52:36.465Z,101804.88
2018-10-01T16:55:05.896Z,101803.86
2018-10-01T16:57:34.744Z,101800.97
2018-10-01T17:00:03.676Z,101808.50
2018-10-01T17:02:32.500Z,101806.42
2018-10-01T17:05:01.361Z,101794.08
2018-10-01T17:07:30.175Z,101800.66
2018-10-01T17:09:58.986Z,101805.55
2018-10-01T17:12:27.890Z,101811.12
2018-10-01T17:14:56.656Z,101813.14
2018-10-01T17:17:25.692Z,101816.02
2018-10-01T17:19:54.484Z,101821.04
2018-10-01T17:22:23.352Z,101832.58
2018-10-01T17:24:52.159Z,101834.70
2018-10-01T17:27:21.075Z,101836.64
2018-10-01T17:29:50.303Z,101837.59
2018-10-01T17:32:19.163Z,101833.10
2018-10-01T17:34:48.299Z,101837.64
2018-10-01T17:37:17.125Z,101840.58
2018-10-01T17:39:45.972Z,101842.42
2018-10-01T17:42:14.945Z,101846.17
2018-10-01T17:44:43.783Z,101856.67
2018-10-01T17:47:12.568Z,101858.75
2018-10-01T17:49:41.387Z,101868.86
2018-10-01T17:52:10.490Z,101878.06
2018-10-01T17:54:39.374Z,101879.41
2018-10-01T17:57:08.156Z,101883.17
2018-10-01T17:59:37.003Z,101882.20
2018-10-01T18:02:05.990Z,101883.56
2018-10-01T18:04:34.816Z,101889.77
2018-10-01T18:07:03.672Z,101890.84
2018-10-01T18:09:32.744Z,101890.84
2018-10-01T18:12:01.594Z,101892.33
2018-10-01T18:14:30.490Z,101890.03
2018-10-01T18:16:59.416Z,101888.45
2018-10-01T18:19:28.331Z,101891.56
2018-10-01T18:21:58.418Z,101892.27
2018-10-01T18:24:27.178Z,101897.14
2018-10-01T18:26:56.018Z,101903.86
2018-10-01T18:29:24.813Z,101903.86
2018-10-01T18:31:53.804Z,101894.59
2018-10-01T18:34:22.596Z,101894.33
2018-10-01T18:36:51.425Z,101900.16
2018-10-01T18:39:23.796Z,101898.66
2018-10-01T18:41:52.736Z,101892.48
2018-10-01T18:44:21.564Z,101884.70
2018-10-01T18:46:50.434Z,101886.00
2018-10-01T18:49:19.490Z,101890.62
2018-10-01T18:51:48.391Z,101895.84
2018-10-01T18:54:17.305Z,101888.16
2018-10-01T18:56:46.111Z,101896.73
2018-10-01T18:59:14.997Z,101891.29
2018-10-01T19:01:43.842Z,101906.04
2018-10-01T19:04:12.688Z,101907.78
2018-10-01T19:06:41.937Z,101914.25
2018-10-01T19:09:11.889Z,101917.63
2018-10-01T19:11:41.378Z,101924.52
2018-10-01T19:14:10.607Z,101926.88
2018-10-01T19:16:39.443Z,101938.52
2018-10-01T19:19:08.316Z,101943.85
2018-10-01T19:21:37.210Z,101935.40
2018-10-01T19:24:06.379Z,101937.31
2018-10-01T19:26:36.170Z,101941.71
2018-10-01T19:29:05.236Z,101945.83
2018-10-01T19:31:35.005Z,101943.94
2018-10-01T19:34:04.308Z,101939.11
2018-10-01T19:36:33.347Z,101932.98
2018-10-01T19:39:02.448Z,101935.97
2018-10-01T19:41:31.714Z,101932.81
2018-10-01T19:44:00.745Z,101944.22
2018-10-01T19:46:29.847Z,101943.84
2018-10-01T19:48:58.927Z,101939.41
2018-10-01T19:51:27.807Z,101939.20
2018-10-01T19:53:56.613Z,101942.80
2018-10-01T19:56:25.919Z,101939.24
2018-10-01T19:58:54.919Z,101933.94
2018-10-01T20:01:23.831Z,101936.52
2018-10-01T20:03:52.624Z,101939.73
2018-10-01T20:06:21.533Z,101944.67
2018-10-01T20:08:50.436Z,101942.63
2018-10-01T20:11:19.794Z,101941.50
2018-10-01T20:13:48.543Z,101943.44
2018-10-01T20:16:17.363Z,101943.30
2018-10-01T20:18:46.206Z,101944.34
2018-10-01T20:21:15.117Z,101955.39
2018-10-01T20:23:43.987Z,101957.88
2018-10-01T20:26:12.959Z,101962.50
2018-10-01T20:28:41.897Z,101968.86
2018-10-01T20:31:10.963Z,101970.97
2018-10-01T20:33:39.818Z,101971.56
2018-10-01T20:36:08.836Z,101971.56
2018-10-01T20:38:37.786Z,101974.11
2018-10-01T20:41:06.714Z,101962.75
2018-10-01T20:43:35.636Z,101969.36
2018-10-01T20:46:04.515Z,101973.20
2018-10-01T20:48:33.436Z,101973.39
2018-10-01T20:51:02.263Z,101973.20
2018-10-01T20:53:31.232Z,101970.97
2018-10-01T20:56:00.198Z,101964.51
2018-10-01T20:58:28.935Z,101955.63
2018-10-01T21:00:57.913Z,101952.47
2018-10-01T21:03:26.776Z,101952.14
2018-10-01T21:05:55.595Z,101946.03
2018-10-01T21:08:24.521Z,101936.64
2018-10-01T21:10:53.658Z,101936.73
2018-10-01T21:13:22.632Z,101944.16
2018-10-01T21:15:51.464Z,101946.51
2018-10-01T21:18:20.335Z,101948.87
2018-10-01T21:20:49.192Z,101954.67
2018-10-01T21:23:18.086Z,101944.48
2018-10-01T21:25:47.003Z,101948.61
2018-10-01T21:28:15.793Z,101950.28
2018-10-01T21:30:44.607Z,101947.27
2018-10-01T21:33:13.414Z,101953.83
2018-10-01T21:35:42.282Z,101948.70
2018-10-01T21:38:11.582Z,101957.39
2018-10-01T21:40:40.408Z,101961.61
2018-10-01T21:43:09.215Z,101961.47
2018-10-01T21:45:38.105Z,101964.86
2018-10-01T21:48:06.948Z,101972.52
2018-10-01T21:50:35.902Z,101969.07
2018-10-01T21:53:04.755Z,101964.67
2018-10-01T21:55:33.658Z,101964.75
2018-10-01T21:58:02.519Z,101967.16
2018-10-01T22:00:38.248Z,101970.97
2018-10-01T22:03:07.245Z,101965.48
2018-10-01T22:05:36.148Z,101966.70
2018-10-01T22:08:05.033Z,101965.16
2018-10-01T22:10:33.917Z,101969.09
2018-10-01T22:13:02.736Z,101968.61
2018-10-01T22:15:37.911Z,101966.86
2018-10-01T22:18:06.778Z,101964.16
2018-10-01T22:20:35.626Z,101963.10
2018-10-01T22:23:04.574Z,101961.98
2018-10-01T22:25:33.556Z,101962.12
2018-10-01T22:28:02.463Z,101953.89
2018-10-01T22:30:31.615Z,101950.94
2018-10-01T22:33:00.499Z,101951.67
2018-10-01T22:35:29.337Z,101948.66
2018-10-01T22:37:58.284Z,101953.18
2018-10-01T22:40:27.085Z,101952.91
2018-10-01T22:42:55.975Z,101948.10
2018-10-01T22:45:24.772Z,101945.64
2018-10-01T22:47:53.653Z,101936.52
2018-10-01T22:50:22.545Z,101938.64
2018-10-01T22:52:51.498Z,101926.65
2018-10-01T22:55:20.278Z,101931.17
2018-10-01T22:57:49.200Z,101942.74
2018-10-01T23:00:17.999Z,101938.84
2018-10-01T23:02:47.056Z,101939.29
2018-10-01T23:05:16.208Z,101938.36
2018-10-01T23:07:45.092Z,101931.40
2018-10-01T23:10:13.929Z,101931.22
2018-10-01T23:12:43.157Z,101941.31
2018-10-01T23:15:12.085Z,101936.34
2018-10-01T23:17:40.906Z,101938.81
2018-10-01T23:20:09.796Z,101935.16
2018-10-01T23:22:38.588Z,101933.05
2018-10-01T23:25:07.504Z,101924.30
2018-10-01T23:27:36.388Z,101923.36
2018-10-01T23:30:05.724Z,101925.58
2018-10-01T23:32:34.544Z,101926.63
2018-10-01T23:35:03.484Z,101935.34
2018-10-01T23:37:32.365Z,101924.39
2018-10-01T23:40:01.323Z,101921.45
2018-10-01T23:42:30.408Z,101920.79
2018-10-01T23:44:59.260Z,101921.55
2018-10-01T23:47:28.477Z,101909.47
2018-10-01T23:49:57.355Z,101907.67
2018-10-01T23:52:26.232Z,101904.46
2018-10-01T23:54:55.089Z,101905.65
2018-10-01T23:57:24.152Z,101905.17
2018-10-01T23:59:53.032Z,101907.22
